Wetterdaten: Woche 29.04.13 - 05.05.13 (KW18)
Datum Zeit Temp. A. Feuchte A. Luftdruck Regen Wind Richtung Taupunkt Windchill Windben
29.04.2013 00:00 8,5 C 76 % 1014,7 hPa 0,0 l/m 2,0 km/h (1 Bft) S-SW 4,5 C 8,5 C 4,4 km/h (1 Bft)
29.04.2013 01:00 8,0 C 78 % 1014,7 hPa 0,0 l/m 0,6 km/h (0 Bft) S-SW 4,5 C 8,0 C 2,5 km/h (1 Bft)
29.04.2013 02:00 7,6 C 81 % 1014,2 hPa 0,0 l/m 1,1 km/h (1 Bft) S 4,6 C 7,6 C 3,7 km/h (1 Bft)
29.04.2013 03:00 7,7 C 82 % 1013,7 hPa 0,0 l/m 2,8 km/h (1 Bft) S-SW 4,8 C 7,7 C 5,9 km/h (2 Bft)
29.04.2013 04:00 8,1 C 82 % 1013,5 hPa 0,0 l/m 3,8 km/h (1 Bft) S-SW 5,1 C 8,1 C 8,6 km/h (2 Bft)
29.04.2013 05:00 8,1 C 83 % 1013,2 hPa 0,0 l/m 3,6 km/h (1 Bft) SW 5,4 C 8,1 C 7,5 km/h (2 Bft)
29.04.2013 06:00 8,0 C 84 % 1013,2 hPa 0,0 l/m 3,3 km/h (1 Bft) SW 5,4 C 8,0 C 8,0 km/h (2 Bft)
29.04.2013 07:00 8,5 C 82 % 1013,5 hPa 0,0 l/m 4,2 km/h (1 Bft) SW 5,7 C 8,5 C 10,8 km/h (2 Bft)
29.04.2013 08:00 9,9 C 77 % 1013,4 hPa 0,0 l/m 5,4 km/h (1 Bft) W-SW 6,1 C 9,9 C 12,8 km/h (3 Bft)
29.04.2013 09:00 11,4 C 68 % 1013,5 hPa 0,0 l/m 7,1 km/h (2 Bft) S-SW 5,7 C 10,9 C 15,4 km/h (3 Bft)
29.04.2013 10:00 11,8 C 62 % 1013,9 hPa 0,0 l/m 6,7 km/h (2 Bft) SW 4,8 C 11,2 C 16,5 km/h (3 Bft)
29.04.2013 11:00 12,0 C 58 % 1014,1 hPa 0,0 l/m 7,8 km/h (2 Bft) SW 4,1 C 11,2 C 18,1 km/h (3 Bft)
29.04.2013 12:00 13,3 C 53 % 1014,0 hPa 0,0 l/m 9,8 km/h (2 Bft) SW 4,0 C 11,4 C 20,8 km/h (4 Bft)
29.04.2013 13:00 14,3 C 44 % 1014,1 hPa 0,0 l/m 9,9 km/h (2 Bft) S-SW 2,2 C 12,4 C 21,9 km/h (4 Bft)
29.04.2013 14:00 14,3 C 43 % 1014,7 hPa 0,0 l/m 10,2 km/h (2 Bft) W 1,7 C 12,3 C 22,2 km/h (4 Bft)
29.04.2013 15:00 14,3 C 44 % 1015,0 hPa 0,0 l/m 9,3 km/h (2 Bft) SW 2,3 C 12,7 C 21,8 km/h (4 Bft)
29.04.2013 16:00 13,2 C 53 % 1016,1 hPa 0,0 l/m 8,5 km/h (2 Bft) W-NW 3,9 C 12,0 C 21,3 km/h (4 Bft)
29.04.2013 17:00 13,1 C 55 % 1016,8 hPa 0,0 l/m 9,5 km/h (2 Bft) W 4,3 C 11,4 C 22,2 km/h (4 Bft)
29.04.2013 18:00 12,0 C 58 % 1017,4 hPa 0,0 l/m 8,2 km/h (2 Bft) W 4,1 C 10,9 C 18,8 km/h (3 Bft)
29.04.2013 19:00 11,0 C 66 % 1017,8 hPa 0,0 l/m 5,2 km/h (1 Bft) SW 4,8 C 10,8 C 13,6 km/h (3 Bft)
29.04.2013 20:00 9,8 C 74 % 1018,3 hPa 0,0 l/m 3,1 km/h (1 Bft) S-SW 5,3 C 9,8 C 8,0 km/h (2 Bft)
29.04.2013 21:00 8,4 C 78 % 1018,8 hPa 0,0 l/m 1,0 km/h (0 Bft) S-SW 4,7 C 8,4 C 3,7 km/h (1 Bft)
29.04.2013 22:00 7,5 C 80 % 1019,5 hPa 0,0 l/m 1,4 km/h (1 Bft) SW 4,1 C 7,5 C 4,3 km/h (1 Bft)
29.04.2013 23:00 6,8 C 79 % 1019,8 hPa 0,0 l/m 0,8 km/h (0 Bft) SW 3,4 C 6,8 C 3,1 km/h (1 Bft)
30.04.2013 00:00 4,9 C 84 % 1020,2 hPa 0,0 l/m 0,4 km/h (0 Bft) N-NO 2,5 C 4,9 C 1,5 km/h (1 Bft)
30.04.2013 01:00 3,4 C 90 % 1020,4 hPa 0,0 l/m 0,0 km/h (0 Bft) N 1,9 C 3,4 C 0,3 km/h (0 Bft)
30.04.2013 02:00 3,1 C 91 % 1020,5 hPa 0,0 l/m 0,0 km/h (0 Bft) N 1,8 C 3,1 C 0,0 km/h (0 Bft)
30.04.2013 03:00 2,8 C 91 % 1020,9 hPa 0,0 l/m 0,0 km/h (0 Bft) N 1,6 C 2,8 C 0,0 km/h (0 Bft)
30.04.2013 04:00 2,0 C 92 % 1021,3 hPa 0,0 l/m 0,0 km/h (0 Bft) N 0,8 C 2,0 C 0,0 km/h (0 Bft)
30.04.2013 05:00 1,6 C 94 % 1021,6 hPa 0,0 l/m 0,0 km/h (0 Bft) N 0,7 C 1,6 C 0,0 km/h (0 Bft)
30.04.2013 06:00 1,6 C 94 % 1022,0 hPa 0,0 l/m 0,0 km/h (0 Bft) N 0,8 C 1,6 C 0,0 km/h (0 Bft)
30.04.2013 07:00 4,5 C 92 % 1022,4 hPa 0,0 l/m 0,2 km/h (0 Bft) S 3,4 C 4,5 C 0,7 km/h (0 Bft)
30.04.2013 08:00 8,1 C 82 % 1022,7 hPa 0,0 l/m 3,5 km/h (1 Bft) SW 5,2 C 8,1 C 7,2 km/h (2 Bft)
30.04.2013 09:00 11,1 C 66 % 1022,8 hPa 0,0 l/m 4,1 km/h (1 Bft) W-SW 4,9 C 11,1 C 9,0 km/h (2 Bft)
30.04.2013 10:00 12,5 C 57 % 1023,0 hPa 0,0 l/m 4,7 km/h (1 Bft) NW 4,1 C 12,5 C 10,7 km/h (2 Bft)
30.04.2013 11:00 13,1 C 52 % 1022,8 hPa 0,0 l/m 3,7 km/h (1 Bft) W-NW 3,5 C 13,1 C 9,7 km/h (2 Bft)
30.04.2013 12:00 13,6 C 49 % 1022,8 hPa 0,0 l/m 4,7 km/h (1 Bft) W-SW 3,0 C 13,5 C 10,6 km/h (2 Bft)
30.04.2013 13:00 13,7 C 50 % 1022,6 hPa 0,0 l/m 5,7 km/h (2 Bft) N-NW 3,4 C 13,4 C 11,9 km/h (2 Bft)
30.04.2013 14:00 14,5 C 48 % 1022,5 hPa 0,0 l/m 5,8 km/h (2 Bft) N-NW 3,6 C 14,3 C 12,5 km/h (2 Bft)
30.04.2013 15:00 14,0 C 48 % 1022,4 hPa 0,0 l/m 6,4 km/h (2 Bft) N 3,3 C 13,4 C 11,3 km/h (2 Bft)
30.04.2013 16:00 13,7 C 51 % 1022,4 hPa 0,0 l/m 6,0 km/h (2 Bft) N-NO 3,8 C 13,2 C 11,1 km/h (2 Bft)
30.04.2013 17:00 13,0 C 54 % 1022,6 hPa 0,0 l/m 9,3 km/h (2 Bft) N-NO 3,9 C 11,3 C 15,3 km/h (3 Bft)
30.04.2013 18:00 12,4 C 56 % 1022,8 hPa 0,0 l/m 7,3 km/h (2 Bft) N 3,9 C 11,7 C 11,7 km/h (2 Bft)
30.04.2013 19:00 11,7 C 61 % 1023,1 hPa 0,0 l/m 4,5 km/h (1 Bft) N-NO 4,3 C 11,6 C 7,5 km/h (2 Bft)
30.04.2013 20:00 10,6 C 67 % 1023,7 hPa 0,0 l/m 6,6 km/h (2 Bft) N 4,7 C 9,9 C 9,9 km/h (2 Bft)
30.04.2013 21:00 8,2 C 76 % 1024,2 hPa 0,0 l/m 3,4 km/h (1 Bft) N 4,2 C 8,2 C 5,8 km/h (2 Bft)
30.04.2013 22:00 6,8 C 80 % 1024,8 hPa 0,0 l/m 3,8 km/h (1 Bft) N 3,6 C 6,8 C 5,3 km/h (1 Bft)
30.04.2013 23:00 6,4 C 81 % 1025,2 hPa 0,0 l/m 4,9 km/h (1 Bft) N-NO 3,3 C 6,4 C 6,9 km/h (2 Bft)
01.05.2013 00:00 6,0 C 82 % 1025,6 hPa 0,0 l/m 5,2 km/h (1 Bft) N-NO 3,1 C 6,0 C 8,7 km/h (2 Bft)
01.05.2013 01:00 5,1 C 84 % 1025,8 hPa 0,0 l/m 5,4 km/h (2 Bft) N-NO 2,6 C 5,1 C 8,2 km/h (2 Bft)
01.05.2013 02:00 4,8 C 85 % 1025,9 hPa 0,0 l/m 5,4 km/h (1 Bft) N-NO 2,6 C 4,7 C 9,5 km/h (2 Bft)
01.05.2013 03:00 4,4 C 88 % 1026,2 hPa 0,0 l/m 3,3 km/h (1 Bft) N-NO 2,5 C 4,4 C 5,3 km/h (1 Bft)
01.05.2013 04:00 3,5 C 89 % 1026,3 hPa 0,0 l/m 3,7 km/h (1 Bft) N-NO 1,8 C 3,5 C 5,9 km/h (2 Bft)
01.05.2013 05:00 2,6 C 90 % 1026,5 hPa 0,0 l/m 0,4 km/h (0 Bft) NO 1,1 C 2,6 C 1,3 km/h (1 Bft)
01.05.2013 06:00 2,5 C 91 % 1026,8 hPa 0,0 l/m 1,1 km/h (0 Bft) NO 1,1 C 2,5 C 2,1 km/h (1 Bft)
01.05.2013 07:00 4,5 C 88 % 1027,0 hPa 0,0 l/m 5,0 km/h (1 Bft) NO 2,6 C 4,5 C 8,6 km/h (2 Bft)
01.05.2013 08:00 7,0 C 79 % 1027,1 hPa 0,0 l/m 6,8 km/h (2 Bft) O-NO 3,7 C 6,6 C 11,8 km/h (2 Bft)
01.05.2013 09:00 9,2 C 71 % 1027,1 hPa 0,0 l/m 6,4 km/h (2 Bft) NO 4,2 C 9,0 C 11,8 km/h (2 Bft)
01.05.2013 10:00 11,1 C 67 % 1026,8 hPa 0,0 l/m 7,2 km/h (2 Bft) O-NO 5,1 C 10,4 C 12,8 km/h (3 Bft)
01.05.2013 11:00 12,6 C 64 % 1026,2 hPa 0,0 l/m 6,9 km/h (2 Bft) NO 5,9 C 12,2 C 14,4 km/h (3 Bft)
01.05.2013 12:00 13,8 C 59 % 1025,5 hPa 0,0 l/m 8,4 km/h (2 Bft) O-NO 5,9 C 12,6 C 16,0 km/h (3 Bft)
01.05.2013 13:00 14,2 C 54 % 1024,9 hPa 0,0 l/m 6,8 km/h (2 Bft) NO 5,0 C 13,7 C 14,0 km/h (3 Bft)
01.05.2013 14:00 14,5 C 52 % 1024,4 hPa 0,0 l/m 7,1 km/h (2 Bft) O 4,9 C 14,0 C 14,6 km/h (3 Bft)
01.05.2013 15:00 14,5 C 55 % 1023,8 hPa 0,0 l/m 7,6 km/h (2 Bft) O-SO 5,4 C 13,8 C 14,1 km/h (3 Bft)
01.05.2013 16:00 14,5 C 56 % 1023,3 hPa 0,0 l/m 5,5 km/h (2 Bft) O-SO 5,9 C 14,4 C 12,1 km/h (2 Bft)
01.05.2013 17:00 14,6 C 56 % 1022,7 hPa 0,0 l/m 5,7 km/h (2 Bft) O 6,0 C 14,6 C 11,0 km/h (2 Bft)
01.05.2013 18:00 14,7 C 56 % 1022,3 hPa 0,0 l/m 6,0 km/h (2 Bft) O 5,9 C 14,6 C 11,6 km/h (2 Bft)
01.05.2013 19:00 14,1 C 58 % 1022,4 hPa 0,0 l/m 4,5 km/h (1 Bft) O-NO 5,9 C 14,1 C 8,6 km/h (2 Bft)
01.05.2013 20:00 13,1 C 64 % 1022,2 hPa 0,0 l/m 3,2 km/h (1 Bft) O-NO 6,4 C 13,1 C 6,8 km/h (2 Bft)
01.05.2013 21:00 12,4 C 67 % 1022,1 hPa 0,0 l/m 2,6 km/h (1 Bft) O-NO 6,5 C 12,4 C 5,1 km/h (1 Bft)
01.05.2013 22:00 12,2 C 68 % 1022,2 hPa 0,0 l/m 0,9 km/h (0 Bft) O-NO 6,5 C 12,2 C 2,3 km/h (1 Bft)
01.05.2013 23:00 11,2 C 76 % 1022,1 hPa 0,0 l/m 0,0 km/h (0 Bft) N 7,1 C 11,2 C 0,0 km/h (0 Bft)
02.05.2013 00:00 10,6 C 81 % 1021,9 hPa 0,0 l/m 0,0 km/h (0 Bft) N 7,4 C 10,6 C 0,0 km/h (0 Bft)
02.05.2013 01:00 9,6 C 83 % 1021,6 hPa 0,0 l/m 0,0 km/h (0 Bft) N 6,8 C 9,6 C 0,0 km/h (0 Bft)
02.05.2013 02:00 7,7 C 86 % 1021,5 hPa 0,0 l/m 0,0 km/h (0 Bft) N 5,6 C 7,7 C 0,0 km/h (0 Bft)
02.05.2013 03:00 7,3 C 88 % 1021,4 hPa 0,0 l/m 0,0 km/h (0 Bft) N 5,5 C 7,3 C 0,0 km/h (0 Bft)
02.05.2013 04:00 7,7 C 87 % 1021,0 hPa 0,0 l/m 0,0 km/h (0 Bft) N 5,7 C 7,7 C 0,0 km/h (0 Bft)
02.05.2013 05:00 7,8 C 86 % 1020,7 hPa 0,0 l/m 0,0 km/h (0 Bft) N 5,6 C 7,8 C 0,0 km/h (0 Bft)
02.05.2013 06:00 7,1 C 89 % 1020,6 hPa 0,0 l/m 0,0 km/h (0 Bft) N 5,3 C 7,1 C 0,0 km/h (0 Bft)
02.05.2013 07:00 9,0 C 87 % 1021,0 hPa 0,0 l/m 0,8 km/h (0 Bft) O-NO 7,0 C 9,0 C 1,6 km/h (1 Bft)
02.05.2013 08:00 10,5 C 82 % 1021,6 hPa 0,0 l/m 3,9 km/h (1 Bft) NO 7,6 C 10,5 C 6,5 km/h (2 Bft)
02.05.2013 09:00 12,2 C 78 % 1021,8 hPa 0,0 l/m 5,1 km/h (1 Bft) N-NO 8,4 C 12,1 C 9,9 km/h (2 Bft)
02.05.2013 10:00 13,3 C 73 % 1021,8 hPa 0,0 l/m 6,3 km/h (2 Bft) O-NO 8,6 C 13,1 C 12,6 km/h (3 Bft)
02.05.2013 11:00 12,9 C 74 % 1022,2 hPa 0,0 l/m 6,7 km/h (2 Bft) O 8,4 C 12,4 C 12,9 km/h (3 Bft)
02.05.2013 12:00 13,4 C 73 % 1022,0 hPa 0,0 l/m 6,2 km/h (2 Bft) NO 8,7 C 13,2 C 12,0 km/h (2 Bft)
02.05.2013 13:00 13,5 C 73 % 1022,0 hPa 0,0 l/m 7,1 km/h (2 Bft) O-NO 8,7 C 13,0 C 13,2 km/h (3 Bft)
02.05.2013 14:00 14,0 C 72 % 1021,8 hPa 0,0 l/m 8,1 km/h (2 Bft) NO 9,0 C 13,1 C 14,6 km/h (3 Bft)
02.05.2013 15:00 14,5 C 70 % 1021,5 hPa 0,0 l/m 8,1 km/h (2 Bft) NO 9,1 C 13,5 C 14,5 km/h (3 Bft)
02.05.2013 16:00 14,8 C 67 % 1021,1 hPa 0,0 l/m 6,7 km/h (2 Bft) NO 8,6 C 14,4 C 13,3 km/h (3 Bft)
02.05.2013 17:00 14,9 C 64 % 1020,8 hPa 0,0 l/m 6,0 km/h (2 Bft) O-NO 8,1 C 14,7 C 11,4 km/h (2 Bft)
02.05.2013 18:00 14,8 C 61 % 1020,8 hPa 0,0 l/m 4,9 km/h (1 Bft) O-NO 7,4 C 14,8 C 9,8 km/h (2 Bft)
02.05.2013 19:00 13,9 C 67 % 1020,8 hPa 0,0 l/m 3,7 km/h (1 Bft) NO 7,8 C 13,9 C 8,1 km/h (2 Bft)
02.05.2013 20:00 13,7 C 62 % 1020,9 hPa 0,0 l/m 5,5 km/h (2 Bft) O-NO 6,5 C 13,7 C 11,4 km/h (2 Bft)
02.05.2013 21:00 13,2 C 56 % 1021,0 hPa 0,0 l/m 8,7 km/h (2 Bft) O-NO 4,6 C 11,9 C 17,3 km/h (3 Bft)
02.05.2013 22:00 12,2 C 55 % 1021,3 hPa 0,0 l/m 7,1 km/h (2 Bft) NO 3,5 C 11,7 C 13,7 km/h (3 Bft)
02.05.2013 23:00 11,6 C 54 % 1021,0 hPa 0,0 l/m 7,2 km/h (2 Bft) O-NO 2,6 C 11,0 C 14,0 km/h (3 Bft)
03.05.2013 00:00 11,0 C 53 % 1020,8 hPa 0,0 l/m 7,7 km/h (2 Bft) O-NO 1,9 C 10,1 C 15,0 km/h (3 Bft)
03.05.2013 01:00 10,4 C 52 % 1020,8 hPa 0,0 l/m 8,0 km/h (2 Bft) O-NO 0,9 C 9,3 C 16,0 km/h (3 Bft)
03.05.2013 02:00 9,7 C 53 % 1020,5 hPa 0,0 l/m 5,8 km/h (2 Bft) NO 0,6 C 9,7 C 11,3 km/h (2 Bft)
03.05.2013 03:00 8,9 C 56 % 1020,4 hPa 0,0 l/m 3,7 km/h (1 Bft) NO 0,6 C 8,9 C 7,1 km/h (2 Bft)
03.05.2013 04:00 8,8 C 51 % 1020,2 hPa 0,0 l/m 4,8 km/h (1 Bft) NO -0,7 C 8,8 C 9,1 km/h (2 Bft)
03.05.2013 05:00 8,2 C 53 % 1019,7 hPa 0,0 l/m 4,7 km/h (1 Bft) NO -0,7 C 8,2 C 9,1 km/h (2 Bft)
03.05.2013 06:00 7,2 C 65 % 1019,5 hPa 0,0 l/m 2,0 km/h (1 Bft) NO 1,0 C 7,2 C 4,5 km/h (1 Bft)
03.05.2013 07:00 7,8 C 71 % 1019,8 hPa 0,0 l/m 3,7 km/h (1 Bft) NO 2,9 C 7,8 C 7,4 km/h (2 Bft)
03.05.2013 08:00 9,2 C 65 % 1019,8 hPa 0,0 l/m 5,5 km/h (2 Bft) O-NO 3,1 C 9,2 C 10,8 km/h (2 Bft)
03.05.2013 09:00 11,0 C 57 % 1019,7 hPa 0,0 l/m 5,9 km/h (2 Bft) O 2,8 C 10,8 C 10,9 km/h (2 Bft)
03.05.2013 10:00 12,7 C 54 % 1019,6 hPa 0,0 l/m 4,1 km/h (1 Bft) NO 3,6 C 12,7 C 8,3 km/h (2 Bft)
03.05.2013 11:00 13,8 C 55 % 1019,4 hPa 0,0 l/m 5,0 km/h (1 Bft) NO 4,9 C 13,8 C 9,5 km/h (2 Bft)
03.05.2013 12:00 15,1 C 48 % 1018,9 hPa 0,0 l/m 6,0 km/h (2 Bft) O-NO 4,2 C 14,8 C 12,3 km/h (2 Bft)
03.05.2013 13:00 15,8 C 50 % 1018,4 hPa 0,0 l/m 7,6 km/h (2 Bft) NO 5,4 C 15,1 C 13,3 km/h (3 Bft)
03.05.2013 14:00 16,4 C 50 % 1018,0 hPa 0,0 l/m 7,4 km/h (2 Bft) N-NO 5,8 C 15,7 C 15,0 km/h (3 Bft)
03.05.2013 15:00 17,0 C 45 % 1017,4 hPa 0,0 l/m 3,8 km/h (1 Bft) O 4,9 C 17,0 C 8,8 km/h (2 Bft)
03.05.2013 16:00 16,9 C 49 % 1017,1 hPa 0,0 l/m 3,9 km/h (1 Bft) NO 6,2 C 16,9 C 8,3 km/h (2 Bft)
03.05.2013 17:00 17,4 C 48 % 1016,9 hPa 0,0 l/m 3,6 km/h (1 Bft) NO 6,1 C 17,4 C 8,9 km/h (2 Bft)
03.05.2013 18:00 17,1 C 47 % 1016,6 hPa 0,0 l/m 2,7 km/h (1 Bft) O-SO 5,6 C 17,1 C 5,3 km/h (1 Bft)
03.05.2013 19:00 15,3 C 60 % 1016,4 hPa 0,0 l/m 1,4 km/h (1 Bft) NO 7,6 C 15,3 C 2,8 km/h (1 Bft)
03.05.2013 20:00 13,6 C 62 % 1016,5 hPa 0,0 l/m 0,0 km/h (0 Bft) N 6,5 C 13,6 C 0,0 km/h (0 Bft)
03.05.2013 21:00 10,6 C 74 % 1016,9 hPa 0,0 l/m 0,1 km/h (0 Bft) SW 6,1 C 10,6 C 0,7 km/h (0 Bft)
03.05.2013 22:00 8,0 C 84 % 1017,0 hPa 0,0 l/m 0,3 km/h (0 Bft) N-NO 5,5 C 8,0 C 1,1 km/h (0 Bft)
03.05.2013 23:00 6,4 C 88 % 1017,0 hPa 0,0 l/m 0,0 km/h (0 Bft) N 4,6 C 6,4 C 0,0 km/h (0 Bft)
04.05.2013 00:00 5,2 C 90 % 1016,9 hPa 0,0 l/m 0,0 km/h (0 Bft) N 3,8 C 5,2 C 0,0 km/h (0 Bft)
04.05.2013 01:00 3,9 C 92 % 1016,7 hPa 0,0 l/m 0,0 km/h (0 Bft) N 2,8 C 3,9 C 0,0 km/h (0 Bft)
04.05.2013 02:00 3,7 C 94 % 1016,4 hPa 0,0 l/m 0,2 km/h (0 Bft) SW 2,7 C 3,7 C 0,5 km/h (0 Bft)
04.05.2013 03:00 2,5 C 94 % 1016,3 hPa 0,0 l/m 0,0 km/h (0 Bft) N 1,6 C 2,5 C 0,0 km/h (0 Bft)
04.05.2013 04:00 1,8 C 94 % 1016,3 hPa 0,0 l/m 0,0 km/h (0 Bft) N 0,9 C 1,8 C 0,0 km/h (0 Bft)
04.05.2013 05:00 1,4 C 95 % 1016,1 hPa 0,0 l/m 0,0 km/h (0 Bft) N 0,7 C 1,4 C 0,0 km/h (0 Bft)
04.05.2013 06:00 1,8 C 95 % 1016,3 hPa 0,0 l/m 0,0 km/h (0 Bft) N 1,0 C 1,8 C 0,0 km/h (0 Bft)
04.05.2013 07:00 5,6 C 94 % 1016,7 hPa 0,0 l/m 0,0 km/h (0 Bft) N 4,7 C 5,6 C 0,0 km/h (0 Bft)
04.05.2013 08:00 10,1 C 76 % 1016,8 hPa 0,0 l/m 2,2 km/h (1 Bft) SW 6,1 C 10,1 C 5,1 km/h (1 Bft)
04.05.2013 09:00 14,1 C 59 % 1016,8 hPa 0,0 l/m 3,9 km/h (1 Bft) S-SW 6,2 C 14,1 C 8,2 km/h (2 Bft)
04.05.2013 10:00 16,7 C 52 % 1016,8 hPa 0,0 l/m 6,6 km/h (2 Bft) S-SW 6,9 C 16,3 C 13,6 km/h (3 Bft)
04.05.2013 11:00 18,3 C 52 % 1016,6 hPa 0,0 l/m 5,7 km/h (2 Bft) S-SW 8,2 C 18,2 C 11,8 km/h (2 Bft)
04.05.2013 12:00 18,7 C 50 % 1016,5 hPa 0,0 l/m 4,2 km/h (1 Bft) SW 8,1 C 18,7 C 9,7 km/h (2 Bft)
04.05.2013 13:00 18,9 C 48 % 1016,2 hPa 0,0 l/m 4,1 km/h (1 Bft) SW 7,5 C 18,9 C 9,3 km/h (2 Bft)
04.05.2013 14:00 20,0 C 45 % 1015,8 hPa 0,0 l/m 5,5 km/h (2 Bft) S-SW 7,8 C 20,0 C 12,1 km/h (2 Bft)
04.05.2013 15:00 20,5 C 44 % 1015,5 hPa 0,0 l/m 5,1 km/h (1 Bft) SW 7,8 C 20,5 C 10,8 km/h (2 Bft)
04.05.2013 16:00 20,2 C 46 % 1015,5 hPa 0,0 l/m 4,3 km/h (1 Bft) SW 8,1 C 20,2 C 10,7 km/h (2 Bft)
04.05.2013 17:00 20,8 C 41 % 1015,5 hPa 0,0 l/m 3,5 km/h (1 Bft) W 6,8 C 20,8 C 8,7 km/h (2 Bft)
04.05.2013 18:00 20,3 C 42 % 1015,8 hPa 0,0 l/m 3,9 km/h (1 Bft) W 6,9 C 20,3 C 9,9 km/h (2 Bft)
04.05.2013 19:00 19,4 C 46 % 1016,2 hPa 0,0 l/m 2,0 km/h (1 Bft) W-SW 7,5 C 19,4 C 5,6 km/h (2 Bft)
04.05.2013 20:00 17,6 C 49 % 1016,6 hPa 0,0 l/m 0,6 km/h (0 Bft) SW 6,8 C 17,6 C 2,7 km/h (1 Bft)
04.05.2013 21:00 13,3 C 65 % 1017,5 hPa 0,0 l/m 0,6 km/h (0 Bft) N-NO 6,8 C 13,3 C 2,1 km/h (1 Bft)
04.05.2013 22:00 10,6 C 81 % 1018,7 hPa 0,0 l/m 4,6 km/h (1 Bft) N 7,6 C 10,6 C 7,5 km/h (2 Bft)
04.05.2013 23:00 10,3 C 81 % 1019,3 hPa 0,0 l/m 1,8 km/h (1 Bft) N 7,2 C 10,3 C 3,1 km/h (1 Bft)
05.05.2013 00:00 9,2 C 83 % 1019,9 hPa 0,0 l/m 0,0 km/h (0 Bft) N 6,4 C 9,2 C 0,1 km/h (0 Bft)
05.05.2013 01:00 7,0 C 89 % 1020,4 hPa 0,0 l/m 0,0 km/h (0 Bft) N 5,3 C 7,0 C 0,0 km/h (0 Bft)
05.05.2013 02:00 5,6 C 92 % 1020,9 hPa 0,0 l/m 0,0 km/h (0 Bft) N 4,4 C 5,6 C 0,0 km/h (0 Bft)
05.05.2013 03:00 4,8 C 93 % 1021,2 hPa 0,0 l/m 0,0 km/h (0 Bft) N 3,7 C 4,8 C 0,0 km/h (0 Bft)
05.05.2013 04:00 3,4 C 94 % 1021,6 hPa 0,0 l/m 0,0 km/h (0 Bft) N 2,5 C 3,4 C 0,0 km/h (0 Bft)
05.05.2013 05:00 3,3 C 95 % 1022,1 hPa 0,0 l/m 0,0 km/h (0 Bft) N 2,6 C 3,3 C 0,0 km/h (0 Bft)
05.05.2013 06:00 3,9 C 95 % 1022,6 hPa 0,0 l/m 0,0 km/h (0 Bft) N 3,2 C 3,9 C 0,0 km/h (0 Bft)
05.05.2013 07:00 6,8 C 95 % 1023,2 hPa 0,0 l/m 0,0 km/h (0 Bft) N 6,0 C 6,8 C 0,0 km/h (0 Bft)
05.05.2013 08:00 11,6 C 84 % 1023,5 hPa 0,0 l/m 0,0 km/h (0 Bft) N 9,0 C 11,6 C 0,0 km/h (0 Bft)
05.05.2013 09:00 14,7 C 70 % 1023,6 hPa 0,0 l/m 2,1 km/h (1 Bft) W-SW 9,2 C 14,7 C 5,0 km/h (1 Bft)
05.05.2013 10:00 16,1 C 62 % 1023,8 hPa 0,0 l/m 3,8 km/h (1 Bft) SW 8,9 C 16,1 C 9,1 km/h (2 Bft)
05.05.2013 11:00 17,2 C 58 % 1024,0 hPa 0,0 l/m 4,6 km/h (1 Bft) SW 8,9 C 17,2 C 10,2 km/h (2 Bft)
05.05.2013 12:00 18,5 C 55 % 1023,8 hPa 0,0 l/m 5,9 km/h (2 Bft) SW 9,4 C 18,4 C 12,6 km/h (3 Bft)
05.05.2013 13:00 19,7 C 52 % 1023,3 hPa 0,0 l/m 4,7 km/h (1 Bft) S-SO 9,6 C 19,7 C 10,7 km/h (2 Bft)
05.05.2013 14:00 19,8 C 51 % 1023,0 hPa 0,0 l/m 3,7 km/h (1 Bft) S-SW 9,4 C 19,7 C 8,0 km/h (2 Bft)
05.05.2013 15:00 20,8 C 49 % 1022,6 hPa 0,0 l/m 3,2 km/h (1 Bft) S-SW 9,6 C 20,7 C 8,3 km/h (2 Bft)
05.05.2013 16:00 20,6 C 47 % 1022,5 hPa 0,0 l/m 3,5 km/h (1 Bft) SW 8,8 C 20,6 C 7,6 km/h (2 Bft)
05.05.2013 17:00 21,3 C 45 % 1022,3 hPa 0,0 l/m 3,2 km/h (1 Bft) O 8,8 C 21,3 C 7,6 km/h (2 Bft)
05.05.2013 18:00 21,4 C 46 % 1022,1 hPa 0,0 l/m 1,9 km/h (1 Bft) O 9,1 C 21,4 C 4,1 km/h (1 Bft)
05.05.2013 19:00 20,6 C 50 % 1022,1 hPa 0,0 l/m 0,3 km/h (0 Bft) O 9,7 C 20,6 C 0,8 km/h (0 Bft)
05.05.2013 20:00 16,9 C 64 % 1022,3 hPa 0,0 l/m 0,0 km/h (0 Bft) N 9,9 C 16,9 C 0,0 km/h (0 Bft)
05.05.2013 21:00 13,2 C 78 % 1022,8 hPa 0,0 l/m 0,3 km/h (0 Bft) N-NO 9,4 C 13,2 C 1,2 km/h (1 Bft)
05.05.2013 22:00 10,3 C 86 % 1023,1 hPa 0,0 l/m 0,5 km/h (0 Bft) N 8,0 C 10,3 C 0,9 km/h (0 Bft)
05.05.2013 23:00 9,9 C 87 % 1023,2 hPa 0,0 l/m 0,0 km/h (0 Bft) N 7,9 C 9,9 C 0,0 km/h (0 Bft)
Min-Datum _ 04.05.13 04.05.13 29.04.13 - 29.04.13 - 03.05.13 04.05.13 29.04.13
_ Min-Zeit 06:10 17:55 06:20 - 01:35 - 04:25 06:10 01:35
Minimum _ 0,8 C 36 % 1013,0 hPa - 0,0 km/h (0 Bft) - -1,2 C 0,8 C 0,0 km/h (0 Bft)
Max-Datum _ 05.05.13 04.05.13 01.05.13 29.04.13 29.04.13 - 05.05.13 05.05.13 29.04.13
_ Max-Zeit 18:25 05:25 08:35 00:00 11:55 - 19:35 18:25 12:40
Maximum _ 22,0 C 96 % 1027,3 hPa 0,0 l/m 13,9 km/h
SW (3 Bft)
- 11,2 C 22,0 C 30,6 km/h
SW (5 Bft)
Durchschnitt _ 11,1 C 69 % 1020,2 hPa #0,0 l/m 3,7 km/h (1 Bft) NO 5,1 C 10,9 C 7,6 km/h (2 Bft)